Athol, South Dakota
Current Conditions -  °F | °C
As of 3:53 PM on Tuesday 21 Oct 2014 (Local Time) from KABR Reporting Station
Clear Clear  
Wind Chill: 26°   Ceiling: Unl
Heat Index: 26°   Visibility: 10mi
Dew Point:   Wind: 21mph
Humidity: 29%   Direction: 170°S
Pressure: 29.83"   Gusts: 31mph
Location:  45.027°N, 98.472°W
Report Text: KABR 212053Z AUTO 17018G27KT 10SM CLR 26/07 A2983 RMK AO2 PK WND 17027/2050 SLP098 T02610067 56020
Loading
Personal Weather Stations






























Interactive Weather Map
Tropical Storm Tracking
New forecast layout! Learn more

10-Day Weather Forecast

Advertisements
Track Severe Weather on mobile